Time;durP1;ratioP1;P1;durP2;ratioP2;P2;SDS_P1;SDS_P2;PMS_P1;PMS_P2;Temp;Humidity;BMP_temperature;BMP_pressure;BME280_temperature;BME280_humidity;BME280_pressure;Samples;Min_cycle;Max_cycle;Signal;HPM_P1;HPM_P2
2022/02/17 00:00:46;;;;;;;0.85;0.50;;;;;;;-146.41;100.00;57768.22;4943476;29;20760;-67
2022/02/17 00:03:14;;;;;;;0.88;0.40;;;;;;;-146.41;100.00;57768.22;4939802;29;20421;-68
2022/02/17 00:05:41;;;;;;;1.45;0.50;;;;;;;-146.41;100.00;57768.22;4943011;29;20047;-68
2022/02/17 00:08:09;;;;;;;2.67;0.60;;;;;;;-146.41;100.00;57768.22;4940074;29;20048;-67
2022/02/17 00:10:39;;;;;;;0.55;0.40;;;;;;;-146.41;100.00;57768.22;4939043;29;20047;-67
2022/02/17 00:13:06;;;;;;;2.80;0.50;;;;;;;-146.41;100.00;57768.22;4924626;29;20051;-67
2022/02/17 00:15:34;;;;;;;1.52;0.52;;;11.10;99.90;;;-146.41;100.00;57768.22;4941968;29;20086;-67
2022/02/17 00:18:11;;;;;;;2.63;0.40;;;;;;;-146.41;100.00;57768.22;4943519;29;20124;-67
2022/02/17 00:20:39;;;;;;;0.68;0.40;;;;;;;-146.41;100.00;57768.22;4941507;29;20152;-67
2022/02/17 00:23:06;;;;;;;0.95;0.50;;;;;;;-146.41;100.00;57768.22;4941506;29;20089;-67
2022/02/17 00:25:57;;;;;;;1.67;0.60;;;11.10;99.90;;;-146.41;100.00;57768.22;4943341;29;20576;-67
2022/02/17 00:28:24;;;;;;;3.20;0.50;;;11.10;99.90;;;-146.41;100.00;57768.22;4942793;29;20059;-67
2022/02/17 00:30:52;;;;;;;1.08;0.40;;;;;;;-146.41;100.00;57768.22;4942726;29;20044;-67
2022/02/17 00:33:26;;;;;;;1.15;0.30;;;11.00;99.90;;;-146.41;100.00;57768.22;4938827;29;20083;-67
2022/02/17 00:35:56;;;;;;;1.70;0.40;;;11.10;99.90;;;-146.41;100.00;57768.22;4939150;29;20143;-67
2022/02/17 00:38:23;;;;;;;1.38;0.40;;;;;;;-146.41;100.00;57768.22;4920675;29;20145;-67
2022/02/17 00:40:51;;;;;;;1.38;0.30;;;;;;;-146.41;100.00;57768.22;4941814;29;20226;-67
2022/02/17 00:43:57;;;;;;;2.35;0.50;;;;;;;-146.41;100.00;57768.22;4943482;29;20423;-67
2022/02/17 00:46:27;;;;;;;1.95;0.50;;;;;;;-146.41;100.00;57768.22;4938525;29;20048;-67
2022/02/17 00:49:03;;;;;;;2.30;0.60;;;;;;;-146.41;100.00;57768.22;4936971;29;20078;-67
2022/02/17 00:51:52;;;;;;;1.75;0.60;;;;;;;-146.41;100.00;57768.22;4937324;29;20083;-67
2022/02/17 00:54:24;;;;;;;3.42;0.43;;;;;;;-146.41;100.00;57768.22;4922153;29;20055;-68
2022/02/17 00:56:54;;;;;;;3.22;0.50;;;;;;;-146.41;100.00;57768.22;4928956;29;20361;-68
2022/02/17 00:59:22;;;;;;;2.53;0.43;;;;;;;-146.41;100.00;57768.22;4937475;29;20448;-67
2022/02/17 01:01:50;;;;;;;2.60;0.50;;;;;;;-146.41;100.00;57768.22;4943553;29;20051;-67
2022/02/17 01:04:19;;;;;;;1.58;0.45;;;;;;;-146.41;100.00;57768.22;4942238;29;20083;-67
2022/02/17 01:06:47;;;;;;;0.80;0.40;;;;;;;-146.41;100.00;57768.22;4942659;28;20366;-67
2022/02/17 01:09:14;;;;;;;0.95;0.35;;;;;;;-146.41;100.00;57768.22;4940854;29;20102;-67
2022/02/17 01:11:44;;;;;;;1.52;0.40;;;;;;;-146.41;100.00;57768.22;4938497;29;20079;-67
2022/02/17 01:14:12;;;;;;;2.50;0.30;;;;;;;-146.41;100.00;57768.22;4941641;29;20138;-67
2022/02/17 01:16:40;;;;;;;0.75;0.40;;;;;;;-146.41;100.00;57768.22;4938337;29;20073;-67
2022/02/17 01:19:08;;;;;;;1.42;0.45;;;;;;;-146.41;100.00;57768.22;4939927;29;20090;-67
2022/02/17 01:21:36;;;;;;;1.42;0.32;;;;;;;-146.41;100.00;57768.22;4942255;29;20501;-68
2022/02/17 01:24:05;;;;;;;1.17;0.40;;;11.10;99.90;;;-146.41;100.00;57768.22;4937157;28;20081;-67
2022/02/17 01:26:38;;;;;;;1.52;0.45;;;11.10;99.90;;;-146.41;100.00;57768.22;4941047;29;20122;-67
2022/02/17 01:29:05;;;;;;;1.38;0.32;;;11.10;99.90;;;-146.41;100.00;57768.22;4941061;29;20094;-68
2022/02/17 01:31:34;;;;;;;2.45;0.38;;;11.10;99.90;;;-146.41;100.00;57768.22;4945157;29;20077;-67
2022/02/17 01:34:01;;;;;;;0.95;0.30;;;11.10;99.90;;;-146.41;100.00;57768.22;4943421;28;20138;-67
2022/02/17 01:36:29;;;;;;;1.08;0.40;;;11.10;99.90;;;-146.41;100.00;57768.22;4939668;29;20150;-67
2022/02/17 01:38:56;;;;;;;0.82;0.30;;;11.10;99.90;;;-146.41;100.00;57768.22;4940179;29;20090;-67
2022/02/17 01:41:27;;;;;;;1.13;0.20;;;11.10;99.90;;;-146.41;100.00;57768.22;4946443;29;20043;-67
2022/02/17 01:44:11;;;;;;;0.50;0.20;;;11.20;99.90;;;-146.41;100.00;57768.22;4946617;29;20130;-67
2022/02/17 01:46:42;;;;;;;1.52;0.40;;;11.10;99.90;;;-146.41;100.00;57768.22;4942478;29;20131;-68
2022/02/17 01:49:14;;;;;;;1.05;0.28;;;11.10;99.90;;;-146.41;100.00;57768.22;4934038;29;20081;-67
2022/02/17 01:51:53;;;;;;;1.83;0.40;;;11.10;99.90;;;-146.41;100.00;57768.22;4947022;28;20086;-68
2022/02/17 01:54:22;;;;;;;1.00;0.32;;;11.20;99.90;;;-146.41;100.00;57768.22;4942472;29;20516;-68
2022/02/17 01:56:49;;;;;;;0.73;0.38;;;11.20;99.90;;;-146.41;100.00;57768.22;4946170;29;20544;-67
2022/02/17 01:59:21;;;;;;;0.60;0.30;;;11.10;99.90;;;-146.41;100.00;57768.22;4947133;29;20436;-67
2022/02/17 02:01:48;;;;;;;1.15;0.30;;;11.10;99.90;;;-146.41;100.00;57768.22;4945590;29;20065;-67
2022/02/17 02:04:17;;;;;;;1.27;0.40;;;11.20;99.90;;;-146.41;100.00;57768.22;4946161;29;20082;-67
2022/02/17 02:07:11;;;;;;;0.77;0.40;;;11.20;99.90;;;-146.41;100.00;57768.22;4941620;29;20083;-67
2022/02/17 02:09:41;;;;;;;1.35;0.40;;;11.20;99.90;;;-146.41;100.00;57768.22;4944320;29;20111;-68
2022/02/17 02:13:07;;;;;;;0.63;0.25;;;11.20;99.90;;;-146.41;100.00;57768.22;4945399;28;20139;-68
2022/02/17 02:16:52;;;;;;;3.47;0.40;;;11.20;99.90;;;-146.41;100.00;57768.22;4941038;29;20115;-67
2022/02/17 02:20:07;;;;;;;0.50;0.22;;;11.20;99.90;;;-146.41;100.00;57768.22;4935373;29;20579;-68
2022/02/17 02:23:32;;;;;;;0.93;0.32;;;11.20;99.90;;;-146.41;100.00;57768.22;4946365;29;20086;-68
2022/02/17 02:26:36;;;;;;;0.40;0.30;;;11.20;99.90;;;-146.41;100.00;57768.22;4941057;29;20051;-68
2022/02/17 02:29:29;;;;;;;0.47;0.20;;;11.20;99.90;;;-146.41;100.00;57768.22;4942279;29;20138;-67
2022/02/17 02:32:21;;;;;;;;;;;11.20;99.90;;;-146.41;100.00;57768.22;4944735;29;20079;-67
2022/02/17 02:35:47;;;;;;;1.08;0.28;;;11.20;99.90;;;-146.41;100.00;57768.22;4946403;29;19922;-67
2022/02/17 02:39:12;;;;;;;0.30;0.22;;;11.30;99.90;;;-146.41;100.00;57768.22;4936237;29;20055;-68
2022/02/17 02:42:16;;;;;;;0.17;0.10;;;11.30;99.90;;;-146.41;100.00;57768.22;4942970;29;20130;-68
2022/02/17 02:45:15;;;;;;;1.40;0.20;;;11.30;99.90;;;-146.41;100.00;57768.22;4942718;29;20086;-68
2022/02/17 02:48:04;;;;;;;0.63;0.35;;;11.30;99.90;;;-146.41;100.00;57768.22;4944198;28;20126;-68
2022/02/17 02:51:30;;;;;;;0.10;0.10;;;11.20;99.90;;;-146.41;100.00;57768.22;4932682;29;20158;-68
2022/02/17 02:54:55;;;;;;;1.80;0.20;;;11.20;99.90;;;-146.41;100.00;57768.22;4941631;29;20548;-68
2022/02/17 02:58:08;;;;;;;0.70;0.22;;;11.20;99.90;;;-146.41;100.00;57768.22;4942122;29;20051;-68
2022/02/17 03:01:34;;;;;;;0.90;0.30;;;11.20;99.90;;;-146.41;100.00;57768.22;4940614;29;20123;-68
2022/02/17 03:04:59;;;;;;;0.22;0.10;;;11.20;99.90;;;-146.41;100.00;57768.22;4941320;29;20303;-67
2022/02/17 03:07:37;;;;;;;0.30;0.20;;;11.20;99.90;;;-146.41;100.00;57768.22;4941464;29;20055;-67
2022/02/17 03:11:04;;;;;;;0.20;0.20;;;11.20;99.90;;;-146.41;100.00;57768.22;4943419;29;20540;-67
2022/02/17 03:14:30;;;;;;;0.98;0.20;;;11.30;99.90;;;-146.41;100.00;57768.22;4946473;29;20177;-67
2022/02/17 03:17:55;;;;;;;0.73;0.10;;;11.30;99.90;;;-146.41;100.00;57768.22;4938150;29;20130;-67
2022/02/17 03:21:21;;;;;;;0.70;0.20;;;11.30;99.90;;;-146.41;100.00;57768.22;4946186;29;20515;-68
2022/02/17 03:24:47;;;;;;;1.25;0.22;;;11.30;99.90;;;-146.41;100.00;57768.22;4926986;29;20057;-67
2022/02/17 03:28:13;;;;;;;0.90;0.20;;;11.20;99.90;;;-146.41;100.00;57768.22;4940902;29;20151;-68
2022/02/17 03:31:38;;;;;;;2.60;0.30;;;11.30;99.90;;;-146.41;100.00;57768.22;4943406;29;20686;-67
2022/02/17 03:35:04;;;;;;;1.83;0.30;;;11.30;99.90;;;-146.41;100.00;57768.22;4941831;29;20150;-67
2022/02/17 03:38:31;;;;;;;0.65;0.20;;;11.30;99.90;;;-146.41;100.00;57768.22;4942793;29;20420;-67
2022/02/17 03:41:56;;;;;;;1.42;0.20;;;11.40;99.90;;;-146.41;100.00;57768.22;4942698;29;20140;-67
2022/02/17 03:45:22;;;;;;;1.05;0.40;;;11.60;99.90;;;-146.41;100.00;57768.22;4942063;29;20043;-67
2022/02/17 03:48:48;;;;;;;2.65;0.50;;;11.70;99.90;;;-146.41;100.00;57768.22;4924246;29;20079;-67
2022/02/17 03:52:13;;;;;;;2.30;0.30;;;11.50;99.90;;;-146.41;100.00;57768.22;4940966;29;20154;-67
2022/02/17 03:55:39;;;;;;;1.65;0.30;;;11.50;99.90;;;-146.41;100.00;57768.22;4929210;29;20496;-67
2022/02/17 03:59:07;;;;;;;4.53;0.45;;;11.40;99.90;;;-146.41;100.00;57768.22;4942267;29;20043;-67
2022/02/17 04:02:35;;;;;;;5.20;0.68;;;11.50;99.90;;;-146.41;100.00;57768.22;4941075;29;20082;-67
2022/02/17 04:06:02;;;;;;;5.00;0.50;;;11.40;99.90;;;-146.41;100.00;57768.22;4938291;29;20071;-67
2022/02/17 04:09:28;;;;;;;5.63;0.50;;;11.30;99.90;;;-146.41;100.00;57768.22;4939878;29;20090;-67
2022/02/17 04:12:53;;;;;;;5.45;1.08;;;11.40;99.90;;;-146.41;100.00;57768.22;4937088;29;20122;-67
2022/02/17 04:16:19;;;;;;;8.98;1.17;;;11.30;99.90;;;-146.41;100.00;57768.22;4942357;29;20073;-67
2022/02/17 04:19:46;;;;;;;11.30;1.63;;;11.40;99.90;;;-146.41;100.00;57768.22;4940455;29;20134;-67
2022/02/17 04:23:11;;;;;;;9.05;0.98;;;11.30;99.90;;;-146.41;100.00;57768.22;4938010;29;20134;-67
2022/02/17 04:26:37;;;;;;;6.88;1.20;;;11.10;99.90;;;-146.41;100.00;57768.22;4942238;28;20528;-67
2022/02/17 04:30:03;;;;;;;8.80;1.17;;;10.90;99.90;;;-146.41;100.00;57768.22;4942377;29;20383;-67
2022/02/17 04:33:28;;;;;;;4.38;0.80;;;10.70;99.90;;;-146.41;100.00;57768.22;4939488;29;20047;-67
2022/02/17 04:36:54;;;;;;;8.48;1.23;;;10.70;99.90;;;-146.41;100.00;57768.22;4935441;29;20202;-68
2022/02/17 04:40:19;;;;;;;12.55;1.38;;;10.80;99.90;;;-146.41;100.00;57768.22;4941697;29;20146;-67
2022/02/17 04:43:45;;;;;;;9.55;0.98;;;10.50;99.90;;;-146.41;100.00;57768.22;4942385;29;20146;-66
2022/02/17 04:47:11;;;;;;;9.13;1.35;;;10.60;99.90;;;-146.41;100.00;57768.22;4939404;29;20066;-67
2022/02/17 04:50:37;;;;;;;14.95;1.75;;;10.30;99.90;;;-146.41;100.00;57768.22;4944361;29;20078;-67
2022/02/17 04:54:03;;;;;;;9.65;1.75;;;10.30;99.90;;;-146.41;100.00;57768.22;4941039;29;20448;-67
2022/02/17 04:57:30;;;;;;;12.05;1.90;;;10.20;99.90;;;-146.41;100.00;57768.22;4938958;29;20055;-66
2022/02/17 05:00:55;;;;;;;18.60;1.63;;;10.20;99.90;;;-146.41;100.00;57768.22;4940631;29;20114;-67
2022/02/17 05:04:21;;;;;;;13.50;1.50;;;10.40;99.90;;;-146.41;100.00;57768.22;4940010;29;20051;-67
2022/02/17 05:07:46;;;;;;;21.90;2.25;;;10.20;99.90;;;-146.41;100.00;57768.22;4940846;29;20138;-67
2022/02/17 05:11:14;;;;;;;12.70;1.80;;;10.10;99.90;;;-146.41;100.00;57768.22;4942379;29;20059;-66
2022/02/17 05:14:40;;;;;;;12.93;2.03;;;10.10;99.90;;;-146.41;100.00;57768.22;4938816;29;20544;-66
2022/02/17 05:18:06;;;;;;;18.17;2.70;;;10.20;99.90;;;-146.41;100.00;57768.22;4940465;29;20058;-66
2022/02/17 05:21:32;;;;;;;15.25;2.30;;;10.10;99.90;;;-146.41;100.00;57768.22;4941071;29;20055;-66
2022/02/17 05:24:58;;;;;;;15.95;2.17;;;10.00;99.90;;;-146.41;100.00;57768.22;4940800;29;20102;-66
2022/02/17 05:28:17;;;;;;;15.88;2.50;;;9.90;99.90;;;-146.41;100.00;57768.22;4942396;29;20126;-69
2022/02/17 05:30:45;;;;;;;18.63;2.20;;;9.90;99.90;;;-146.41;100.00;57768.22;4936229;29;20146;-67
2022/02/17 05:33:16;;;;;;;16.60;1.88;;;9.80;99.90;;;-146.41;100.00;57768.22;4939153;29;20135;-67
2022/02/17 05:35:43;;;;;;;11.60;1.45;;;9.90;99.90;;;-146.41;100.00;57768.22;4939516;29;20504;-67
2022/02/17 05:38:10;;;;;;;17.83;2.55;;;9.90;99.90;;;-146.41;100.00;57768.22;4933521;29;20047;-67
2022/02/17 05:40:37;;;;;;;16.00;2.17;;;9.70;99.90;;;-146.41;100.00;57768.22;4939495;28;20139;-66
2022/02/17 05:43:05;;;;;;;20.40;2.75;;;9.80;99.90;;;-146.41;100.00;57768.22;4940667;29;20420;-66
2022/02/17 05:45:33;;;;;;;21.35;2.88;;;9.80;99.90;;;-146.41;100.00;57768.22;4939676;29;20051;-66
2022/02/17 05:48:01;;;;;;;19.73;2.45;;;9.70;99.90;;;-146.41;100.00;57768.22;4941309;29;20087;-67
2022/02/17 05:50:28;;;;;;;14.02;1.77;;;9.70;99.90;;;-146.41;100.00;57768.22;4941472;29;20076;-66
2022/02/17 05:52:55;;;;;;;17.83;2.55;;;9.70;99.90;;;-146.41;100.00;57768.22;4939296;29;20150;-66
2022/02/17 05:55:22;;;;;;;18.00;2.72;;;9.80;99.90;;;-146.41;100.00;57768.22;4945764;29;20077;-66
2022/02/17 05:57:50;;;;;;;18.42;2.83;;;9.80;99.90;;;-146.41;100.00;57768.22;4939112;29;20536;-66
2022/02/17 06:00:19;;;;;;;19.10;2.95;;;9.80;99.90;;;-146.41;100.00;57768.22;4937823;29;20477;-66
2022/02/17 06:02:46;;;;;;;18.27;2.42;;;9.80;99.90;;;-146.41;100.00;57768.22;4939584;29;20101;-67
2022/02/17 06:05:16;;;;;;;17.45;3.65;;;9.80;99.90;;;-146.41;100.00;57768.22;4942854;29;20134;-66
2022/02/17 06:07:47;;;;;;;24.10;3.05;;;9.70;99.90;;;-146.41;100.00;57768.22;4940657;29;20145;-67
2022/02/17 06:10:19;;;;;;;17.75;2.92;;;9.70;99.90;;;-146.41;100.00;57768.22;4939136;29;20075;-67
2022/02/17 06:12:47;;;;;;;21.55;3.25;;;9.70;99.90;;;-146.41;100.00;57768.22;4935544;28;20134;-67
2022/02/17 06:15:16;;;;;;;21.33;3.38;;;9.70;99.90;;;-146.41;100.00;57768.22;4942615;29;20530;-67
2022/02/17 06:17:44;;;;;;;19.08;2.95;;;9.70;99.90;;;-146.41;100.00;57768.22;4928129;29;20473;-67
2022/02/17 06:20:11;;;;;;;16.48;3.00;;;9.80;99.90;;;-146.41;100.00;57768.22;4947060;29;20073;-67
2022/02/17 06:22:50;;;;;;;18.08;2.72;;;9.70;99.90;;;-146.41;100.00;57768.22;4928929;29;20981;-67
2022/02/17 06:25:19;;;;;;;15.73;2.83;;;9.80;99.90;;;-146.41;100.00;57768.22;4943080;29;20206;-67
2022/02/17 06:27:48;;;;;;;19.48;2.10;;;9.80;99.90;;;-146.41;100.00;57768.22;4945245;29;20109;-67
2022/02/17 06:30:21;;;;;;;20.98;2.58;;;9.90;99.90;;;-146.41;100.00;57768.22;4939212;29;20158;-67
2022/02/17 06:32:49;;;;;;;;;;;9.90;99.90;;;-146.41;100.00;57768.22;4944488;29;20062;-67
2022/02/17 06:35:22;;;;;;;13.20;2.83;;;10.00;99.90;;;-146.41;100.00;57768.22;4942708;29;20002;-67
2022/02/17 06:37:50;;;;;;;13.85;2.30;;;9.90;99.90;;;-146.41;100.00;57768.22;4942448;29;20079;-67
2022/02/17 06:40:19;;;;;;;21.42;2.85;;;9.90;99.90;;;-146.41;100.00;57768.22;4940353;29;20126;-67
2022/02/17 06:42:47;;;;;;;16.00;2.35;;;9.90;99.90;;;-146.41;100.00;57768.22;4938647;29;20062;-67
2022/02/17 06:45:16;;;;;;;17.02;2.00;;;9.80;99.90;;;-146.41;100.00;57768.22;4945245;29;20424;-67
2022/02/17 06:47:43;;;;;;;21.02;3.55;;;9.80;99.90;;;-146.41;100.00;57768.22;4939918;29;20057;-67
2022/02/17 06:50:14;;;;;;;18.58;3.95;;;9.70;99.90;;;-146.41;100.00;57768.22;4942873;29;20138;-67
2022/02/17 06:52:42;;;;;;;22.08;3.03;;;9.80;99.90;;;-146.41;100.00;57768.22;4939195;29;20106;-67
2022/02/17 06:55:10;;;;;;;12.23;2.38;;;9.70;99.90;;;-146.41;100.00;57768.22;4944100;29;20138;-67
2022/02/17 06:57:37;;;;;;;15.73;2.33;;;9.60;99.90;;;-146.41;100.00;57768.22;4943678;29;20459;-67
2022/02/17 07:00:05;;;;;;;17.27;2.50;;;9.60;99.90;;;-146.41;100.00;57768.22;4946194;29;20138;-67
2022/02/17 07:02:33;;;;;;;20.63;2.75;;;9.60;99.90;;;-146.41;100.00;57768.22;4939363;29;20043;-67
2022/02/17 07:05:02;;;;;;;17.58;2.50;;;9.60;99.90;;;-146.41;100.00;57768.22;4938268;29;20141;-67
2022/02/17 07:07:35;;;;;;;28.67;3.85;;;9.60;99.90;;;-146.41;100.00;57768.22;4925655;29;20571;-67
2022/02/17 07:10:04;;;;;;;15.15;2.63;;;9.60;99.90;;;-146.41;100.00;57768.22;4940279;29;20063;-67
2022/02/17 07:12:31;;;;;;;21.85;2.92;;;9.60;99.90;;;-146.41;100.00;57768.22;4941184;29;20131;-67
2022/02/17 07:14:58;;;;;;;23.17;3.67;;;9.60;99.90;;;-146.41;100.00;57768.22;4936213;29;20051;-67
2022/02/17 07:17:26;;;;;;;18.20;2.75;;;9.60;99.90;;;-146.41;100.00;57768.22;4942953;29;20139;-67
2022/02/17 07:19:53;;;;;;;18.27;2.80;;;9.60;99.90;;;-146.41;100.00;57768.22;4947285;29;20202;-68
2022/02/17 07:22:20;;;;;;;27.48;4.00;;;9.50;99.90;;;-146.41;100.00;57768.22;4945047;29;20142;-67
2022/02/17 07:24:48;;;;;;;18.13;2.60;;;9.40;99.90;;;-146.41;100.00;57768.22;4946997;28;20135;-67
2022/02/17 07:27:18;;;;;;;23.83;3.97;;;9.50;99.90;;;-146.41;100.00;57768.22;4944647;29;20062;-67
2022/02/17 07:29:45;;;;;;;23.70;3.58;;;9.50;99.90;;;-146.41;100.00;57768.22;4944810;29;20115;-67
2022/02/17 07:32:12;;;;;;;23.92;4.07;;;9.50;99.90;;;-146.41;100.00;57768.22;4946818;29;20058;-67
2022/02/17 07:34:39;;;;;;;23.50;4.10;;;9.60;99.90;;;-146.41;100.00;57768.22;4942402;29;20052;-67
2022/02/17 07:37:06;;;;;;;24.33;3.80;;;9.60;99.90;;;-146.41;100.00;57768.22;4941969;29;20135;-67
2022/02/17 07:39:34;;;;;;;25.90;3.28;;;9.60;99.90;;;-146.41;100.00;57768.22;4940609;29;20057;-67
2022/02/17 07:42:01;;;;;;;14.95;2.42;;;9.60;99.90;;;-146.41;100.00;57768.22;4946365;29;20150;-67
2022/02/17 07:44:28;;;;;;;26.40;3.78;;;9.60;99.90;;;-146.41;100.00;57768.22;4927377;29;20495;-67
2022/02/17 07:46:57;;;;;;;17.80;3.38;;;9.60;99.90;;;-146.41;100.00;57768.22;4940584;29;20063;-67
2022/02/17 07:49:24;;;;;;;35.47;5.20;;;9.60;99.90;;;-146.41;100.00;57768.22;4940480;29;20089;-67
2022/02/17 07:51:52;;;;;;;27.00;4.57;;;9.60;99.90;;;-146.41;100.00;57768.22;4942865;28;20063;-67
2022/02/17 07:54:19;;;;;;;30.20;5.20;;;9.70;99.90;;;-146.41;100.00;57768.22;4938447;29;20428;-67
2022/02/17 07:56:46;;;;;;;31.10;4.30;;;9.70;99.90;;;-146.41;100.00;57768.22;4939655;29;20147;-67
2022/02/17 07:59:15;;;;;;;21.08;3.55;;;9.70;99.90;;;-146.41;100.00;57768.22;4948808;29;20043;-67
2022/02/17 08:01:44;;;;;;;25.08;3.85;;;9.60;99.90;;;-146.41;100.00;57768.22;4943773;29;20047;-67
2022/02/17 08:04:11;;;;;;;22.83;3.60;;;9.70;99.90;;;-146.41;100.00;57768.22;4948733;29;20047;-67
2022/02/17 08:06:38;;;;;;;26.38;3.58;;;9.70;99.90;;;-146.41;100.00;57768.22;4923619;29;20510;-67
2022/02/17 08:09:05;;;;;;;28.63;3.85;;;9.70;99.90;;;-146.41;100.00;57768.22;4944522;29;20055;-68
2022/02/17 08:11:32;;;;;;;20.00;3.95;;;9.70;99.90;;;-146.41;100.00;57768.22;4942980;29;20427;-67
2022/02/17 08:13:59;;;;;;;24.98;4.07;;;9.70;99.90;;;-146.41;100.00;57768.22;4945718;29;20048;-67
2022/02/17 08:16:27;;;;;;;23.55;3.58;;;9.70;99.90;;;-146.41;100.00;57768.22;4944524;29;20087;-66
2022/02/17 08:18:54;;;;;;;33.75;4.05;;;9.70;99.90;;;-146.41;100.00;57768.22;4944335;29;20167;-67
2022/02/17 08:21:42;;;;;;;27.75;4.32;;;9.60;99.90;;;-146.41;100.00;57768.22;4942709;29;20051;-67
2022/02/17 08:24:11;;;;;;;28.50;3.80;;;9.60;99.90;;;-146.41;100.00;57768.22;4938606;29;20421;-67
2022/02/17 08:26:39;;;;;;;29.30;3.92;;;9.60;99.90;;;-146.41;100.00;57768.22;4940136;29;20047;-67
2022/02/17 08:29:07;;;;;;;31.25;4.60;;;9.70;99.90;;;-146.41;100.00;57768.22;4941172;29;20047;-67
2022/02/17 08:31:34;;;;;;;27.75;4.25;;;9.60;99.90;;;-146.41;100.00;57768.22;4947090;29;20059;-67
2022/02/17 08:34:05;;;;;;;25.00;4.65;;;9.70;99.90;;;-146.41;100.00;57768.22;4939346;29;20086;-67
2022/02/17 08:36:34;;;;;;;24.70;4.57;;;9.70;99.90;;;-146.41;100.00;57768.22;4938635;29;20162;-67
2022/02/17 08:39:01;;;;;;;32.95;3.90;;;9.70;99.90;;;-146.41;100.00;57768.22;4924087;29;20484;-67
2022/02/17 08:41:28;;;;;;;31.50;4.20;;;9.60;99.90;;;-146.41;100.00;57768.22;4942977;29;20078;-67
2022/02/17 08:43:55;;;;;;;32.92;4.30;;;9.60;99.90;;;-146.41;100.00;57768.22;4932251;29;20043;-67
2022/02/17 08:46:22;;;;;;;36.58;6.13;;;9.60;99.90;;;-146.41;100.00;57768.22;4939767;28;20122;-66
2022/02/17 08:48:49;;;;;;;34.22;4.88;;;9.60;99.90;;;-146.41;100.00;57768.22;4944280;29;20059;-67
2022/02/17 08:51:17;;;;;;;31.55;4.50;;;9.60;99.90;;;-146.41;100.00;57768.22;4943089;29;20089;-67
2022/02/17 08:53:45;;;;;;;24.88;3.95;;;9.60;99.90;;;-146.41;100.00;57768.22;4941794;29;20126;-67
2022/02/17 08:56:11;;;;;;;29.83;4.70;;;9.60;99.90;;;-146.41;100.00;57768.22;4944127;28;20214;-67
2022/02/17 08:58:39;;;;;;;26.75;4.07;;;9.60;99.90;;;-146.41;100.00;57768.22;4943197;29;20061;-66
2022/02/17 09:01:05;;;;;;;36.50;5.47;;;9.60;99.90;;;-146.41;100.00;57768.22;4944769;29;20069;-67
2022/02/17 09:03:33;;;;;;;36.42;5.60;;;9.50;99.90;;;-146.41;100.00;57768.22;4942490;29;20047;-67
2022/02/17 09:06:00;;;;;;;38.25;6.22;;;9.50;99.90;;;-146.41;100.00;57768.22;4945260;29;20757;-67
2022/02/17 09:08:43;;;;;;;34.70;6.45;;;9.60;99.90;;;-146.41;100.00;57768.22;4940328;29;20165;-67
2022/02/17 09:11:12;;;;;;;40.88;5.80;;;9.80;99.90;;;-146.41;100.00;57768.22;4940066;28;20078;-66
2022/02/17 09:13:39;;;;;;;40.45;6.78;;;9.80;99.90;;;-146.41;100.00;57768.22;4924102;29;20206;-68
2022/02/17 09:16:06;;;;;;;30.20;5.85;;;9.90;99.90;;;-146.41;100.00;57768.22;4938610;29;20075;-67
2022/02/17 09:18:33;;;;;;;41.25;6.70;;;10.10;99.90;;;-146.41;100.00;57768.22;4938002;29;20143;-67
2022/02/17 09:21:00;;;;;;;32.47;5.57;;;10.20;99.90;;;-146.41;100.00;57768.22;4942718;29;20052;-67
2022/02/17 09:23:27;;;;;;;37.35;6.15;;;10.10;99.90;;;-146.41;100.00;57768.22;4941527;29;20097;-67
2022/02/17 09:25:57;;;;;;;35.92;4.68;;;10.00;99.90;;;-146.41;100.00;57768.22;4919888;29;20071;-67
2022/02/17 09:28:24;;;;;;;37.17;5.75;;;9.80;99.90;;;-146.41;100.00;57768.22;4934523;29;20138;-67
2022/02/17 09:30:51;;;;;;;37.15;5.93;;;9.80;99.90;;;-146.41;100.00;57768.22;4940496;29;20051;-67
2022/02/17 09:33:18;;;;;;;38.22;6.10;;;9.90;99.90;;;-146.41;100.00;57768.22;4944537;29;20134;-67
2022/02/17 09:35:45;;;;;;;38.88;5.13;;;9.90;99.90;;;-146.41;100.00;57768.22;4937827;29;20096;-67
2022/02/17 09:38:14;;;;;;;38.35;7.03;;;9.70;99.90;;;-146.41;100.00;57768.22;4941233;29;20131;-67
2022/02/17 09:40:43;;;;;;;45.50;6.55;;;9.30;99.90;;;-146.41;100.00;57768.22;4940362;29;20134;-67
2022/02/17 09:43:13;;;;;;;33.13;5.68;;;9.10;99.90;;;-146.41;100.00;57768.22;4941654;29;20063;-67
2022/02/17 09:45:47;;;;;;;42.70;5.57;;;9.20;99.90;;;-146.41;100.00;57768.22;4940276;28;20070;-67
2022/02/17 09:48:17;;;;;;;27.67;4.82;;;9.40;99.90;;;-146.41;100.00;57768.22;4944088;28;20139;-67
2022/02/17 09:50:46;;;;;;;31.10;5.28;;;9.50;99.90;;;-146.41;100.00;57768.22;4937830;29;20055;-67
2022/02/17 09:53:13;;;;;;;37.63;5.32;;;9.10;99.90;;;-146.41;100.00;57768.22;4945622;29;20118;-67
2022/02/17 09:55:42;;;;;;;34.78;4.45;;;8.80;99.90;;;-146.41;100.00;57768.22;4936301;29;20126;-67
2022/02/17 09:58:09;;;;;;;40.97;4.78;;;8.70;99.90;;;-146.41;100.00;57768.22;4943628;29;20054;-68
2022/02/17 10:00:37;;;;;;;34.85;5.63;;;8.50;99.90;;;-146.41;100.00;57768.22;4945466;28;20069;-68
2022/02/17 10:03:28;;;;;;;40.13;4.40;;;8.10;99.90;;;-146.41;100.00;57768.22;4946713;29;20412;-68
2022/02/17 10:06:17;;;;;;;38.03;4.78;;;7.90;99.90;;;-146.41;100.00;57768.22;4945514;29;20059;-67
2022/02/17 10:08:44;;;;;;;37.88;5.65;;;7.80;99.90;;;-146.41;100.00;57768.22;4940765;29;20538;-67
2022/02/17 10:11:29;;;;;;;33.75;5.00;;;7.70;99.90;;;-146.41;100.00;57768.22;4945975;29;20059;-68
2022/02/17 10:14:12;;;;;;;44.17;5.28;;;7.70;99.90;;;-146.41;100.00;57768.22;4939789;29;20126;-67
2022/02/17 10:16:51;;;;;;;48.20;6.80;;;7.70;99.90;;;-146.41;100.00;57768.22;4919290;29;20130;-68
2022/02/17 10:19:24;;;;;;;38.95;5.85;;;7.60;99.90;;;-146.41;100.00;57768.22;4942787;28;20078;-67
2022/02/17 10:22:19;;;;;;;45.67;5.70;;;7.60;99.90;;;-146.41;100.00;57768.22;4940584;28;20310;-68
2022/02/17 10:24:53;;;;;;;43.25;6.72;;;7.60;99.90;;;-146.41;100.00;57768.22;4943001;29;20047;-68
2022/02/17 10:27:29;;;;;;;45.20;7.50;;;7.70;99.90;;;-146.41;100.00;57768.22;4944873;29;20052;-68
2022/02/17 10:30:17;;;;;;;35.88;4.75;;;7.80;99.90;;;-146.41;100.00;57768.22;4929021;29;20134;-67
2022/02/17 10:32:56;;;;;;;34.53;5.50;;;7.90;99.90;;;-146.41;100.00;57768.22;4944348;29;20087;-67
2022/02/17 10:35:26;;;;;;;28.05;5.50;;;8.00;99.90;;;-146.41;100.00;57768.22;4942355;29;20198;-67
2022/02/17 10:37:55;;;;;;;33.95;4.88;;;8.10;99.90;;;-146.41;100.00;57768.22;4945699;29;20079;-67
2022/02/17 10:40:24;;;;;;;49.75;6.05;;;8.40;99.90;;;-146.41;100.00;57768.22;4944655;29;20052;-67
2022/02/17 10:43:03;;;;;;;37.17;5.18;;;8.70;99.90;;;-146.41;100.00;57768.22;4942943;29;20154;-67
2022/02/17 10:45:43;;;;;;;45.22;5.90;;;8.90;99.90;;;-146.41;100.00;57768.22;4945119;29;20059;-67
2022/02/17 10:48:28;;;;;;;30.58;4.97;;;9.00;99.90;;;-146.41;100.00;57768.22;4933347;28;20057;-67
2022/02/17 10:51:16;;;;;;;36.70;5.50;;;9.00;99.90;;;-146.41;100.00;57768.22;4946689;28;20051;-67
2022/02/17 10:53:57;;;;;;;29.08;3.47;;;9.20;99.90;;;-146.41;100.00;57768.22;4947388;28;20162;-67
2022/02/17 10:56:24;;;;;;;27.63;5.43;;;9.30;99.90;;;-146.41;100.00;57768.22;4944293;28;20059;-67
2022/02/17 10:58:51;;;;;;;32.25;5.57;;;9.60;99.90;;;-146.41;100.00;57768.22;4941791;29;22017;-67
2022/02/17 11:01:20;;;;;;;29.50;4.78;;;9.70;99.90;;;-146.41;100.00;57768.22;4943914;29;20496;-67
2022/02/17 11:03:48;;;;;;;33.53;5.15;;;9.90;99.90;;;-146.41;100.00;57768.22;4943514;29;20540;-67
2022/02/17 11:06:17;;;;;;;32.15;4.68;;;10.00;99.90;;;-146.41;100.00;57768.22;4940623;29;20147;-67
2022/02/17 11:08:48;;;;;;;28.23;5.40;;;10.10;99.90;;;-146.41;100.00;57768.22;4940281;28;20137;-67
2022/02/17 11:11:18;;;;;;;28.45;4.15;;;10.30;99.90;;;-146.41;100.00;57768.22;4943884;29;20130;-67